Time;durP1;ratioP1;P1;durP2;ratioP2;P2;SDS_P1;SDS_P2;PMS_P1;PMS_P2;Temp;Humidity;BMP_temperature;BMP_pressure;BME280_temperature;BME280_humidity;BME280_pressure;Samples;Min_cycle;Max_cycle;Signal;HPM_P1;HPM_P2
2023/07/14 00:01:42;;;;;;;17.60;16.10;;;12.30;99.90;;;;;;4999692;28;20049;-74
2023/07/14 00:04:15;;;;;;;18.83;17.10;;;12.20;99.90;;;;;;5005659;28;20056;-74
2023/07/14 00:06:44;;;;;;;18.35;16.75;;;12.10;99.90;;;;;;5001099;28;20036;-74
2023/07/14 00:09:31;;;;;;;20.02;18.08;;;12.10;99.90;;;;;;5001181;28;20065;-74
2023/07/14 00:11:59;;;;;;;19.35;17.65;;;11.90;99.90;;;;;;4999000;28;20108;-76
2023/07/14 00:14:26;;;;;;;18.83;17.23;;;11.90;99.90;;;;;;5001957;28;20581;-76
2023/07/14 00:16:54;;;;;;;19.90;17.85;;;11.90;99.90;;;;;;4997840;28;20058;-76
2023/07/14 00:19:22;;;;;;;19.17;17.42;;;12.00;99.90;;;;;;5002346;28;20033;-75
2023/07/14 00:21:49;;;;;;;20.00;18.05;;;11.90;99.90;;;;;;4998573;28;20041;-75
2023/07/14 00:24:18;;;;;;;20.50;18.55;;;12.00;99.90;;;;;;5000076;28;20092;-76
2023/07/14 00:26:49;;;;;;;19.90;18.08;;;11.90;99.90;;;;;;5001997;28;20069;-76
2023/07/14 00:29:34;;;;;;;19.30;17.27;;;11.80;99.90;;;;;;4997464;28;20070;-75
2023/07/14 00:32:07;;;;;;;19.38;17.48;;;11.70;99.90;;;;;;4997584;28;20073;-75
2023/07/14 00:34:34;;;;;;;20.60;18.50;;;11.70;99.90;;;;;;5007593;28;20048;-74
2023/07/14 00:37:01;;;;;;;20.05;17.77;;;11.80;99.90;;;;;;4999896;28;21469;-75
2023/07/14 00:39:28;;;;;;;19.92;18.08;;;11.70;99.90;;;;;;4999411;28;20054;-75
2023/07/14 00:41:55;;;;;;;21.25;18.60;;;11.80;99.90;;;;;;5000898;28;20479;-75
2023/07/14 00:44:22;;;;;;;17.73;16.13;;;11.60;99.90;;;;;;5000728;28;20463;-75
2023/07/14 00:46:49;;;;;;;19.10;17.40;;;11.50;99.90;;;;;;4999625;28;20046;-76
2023/07/14 00:49:32;;;;;;;19.73;17.48;;;11.50;99.90;;;;;;5003451;28;20037;-74
2023/07/14 00:52:21;;;;;;;18.77;17.10;;;11.40;99.90;;;;;;4995884;28;20062;-74
2023/07/14 00:54:51;;;;;;;18.75;16.95;;;11.30;99.90;;;;;;4997763;28;20041;-76
2023/07/14 00:57:20;;;;;;;20.52;18.58;;;11.30;99.90;;;;;;5001204;28;20132;-76
2023/07/14 00:59:47;;;;;;;19.38;17.73;;;11.20;99.90;;;;;;5000460;28;20085;-76
2023/07/14 01:02:23;;;;;;;19.98;18.08;;;11.20;99.90;;;;;;5004067;28;20042;-75
2023/07/14 01:04:57;;;;;;;20.70;18.52;;;11.10;99.90;;;;;;5002183;28;20128;-74
2023/07/14 01:07:30;;;;;;;21.95;19.50;;;11.20;99.90;;;;;;5001898;28;20060;-74
2023/07/14 01:09:58;;;;;;;19.38;17.63;;;11.10;99.90;;;;;;5004502;28;20038;-76
2023/07/14 01:12:28;;;;;;;19.25;17.42;;;11.10;99.90;;;;;;5007755;28;20125;-74
2023/07/14 01:14:58;;;;;;;19.58;17.65;;;11.00;99.90;;;;;;5001027;28;20054;-74
2023/07/14 01:17:25;;;;;;;19.80;17.70;;;11.00;99.90;;;;;;5009447;28;20594;-76
2023/07/14 01:20:00;;;;;;;20.02;18.08;;;11.10;99.90;;;;;;5002670;28;20124;-76
2023/07/14 01:22:46;;;;;;;19.48;17.38;;;11.20;99.90;;;;;;5007856;28;20068;-76
2023/07/14 01:25:22;;;;;;;20.00;17.98;;;11.00;99.90;;;;;;5010579;28;20129;-75
2023/07/14 01:27:49;;;;;;;21.70;19.33;;;11.10;99.90;;;;;;4981532;28;20046;-76
2023/07/14 01:30:19;;;;;;;21.10;18.38;;;11.10;99.90;;;;;;5007452;28;20554;-76
2023/07/14 01:32:49;;;;;;;20.13;18.02;;;11.20;99.90;;;;;;5005815;28;20295;-76
2023/07/14 01:35:21;;;;;;;19.63;17.02;;;11.20;99.90;;;;;;5004471;28;20121;-75
2023/07/14 01:37:49;;;;;;;20.27;17.13;;;11.10;99.90;;;;;;5003284;28;20100;-75
2023/07/14 01:40:18;;;;;;;18.20;16.33;;;11.00;99.90;;;;;;5010071;28;20073;-76
2023/07/14 01:42:49;;;;;;;23.95;16.67;;;10.90;99.90;;;;;;5011082;28;20100;-76
2023/07/14 01:45:18;;;;;;;16.73;15.10;;;10.70;99.90;;;;;;5008347;28;20057;-76
2023/07/14 01:47:53;;;;;;;16.92;14.90;;;10.60;99.90;;;;;;5004842;28;20041;-75
2023/07/14 01:50:45;;;;;;;16.25;14.75;;;10.50;99.90;;;;;;5005176;28;20046;-74
2023/07/14 01:53:21;;;;;;;17.35;15.52;;;10.60;99.90;;;;;;5008898;28;20046;-75
2023/07/14 01:55:52;;;;;;;17.73;16.00;;;10.60;99.90;;;;;;5020334;28;20994;-75
2023/07/14 01:58:27;;;;;;;18.13;16.52;;;10.50;99.90;;;;;;5009304;28;20042;-75
2023/07/14 02:00:54;;;;;;;;;;;10.60;99.90;;;;;;5011745;28;20464;-76
2023/07/14 02:03:30;;;;;;;19.48;17.52;;;10.50;99.90;;;;;;5027026;28;19936;-75
2023/07/14 02:05:57;;;;;;;18.65;16.95;;;10.60;99.90;;;;;;5003049;28;20038;-76
2023/07/14 02:08:25;;;;;;;17.00;15.48;;;10.50;99.90;;;;;;5010141;28;20042;-75
2023/07/14 02:10:52;;;;;;;17.63;15.77;;;10.50;99.90;;;;;;5003752;28;20038;-75
2023/07/14 02:13:21;;;;;;;17.67;16.10;;;10.40;99.90;;;;;;5005263;28;20470;-75
2023/07/14 02:15:48;;;;;;;18.10;16.27;;;10.50;99.90;;;;;;5007186;28;20049;-76
2023/07/14 02:18:19;;;;;;;16.48;14.98;;;10.40;99.90;;;;;;5007553;28;20083;-76
2023/07/14 02:20:47;;;;;;;17.63;15.77;;;10.30;99.90;;;;;;5006784;28;20045;-77
2023/07/14 02:23:23;;;;;;;18.05;15.10;;;10.30;99.90;;;;;;5014721;28;20038;-75
2023/07/14 02:26:27;;;;;;;18.10;16.17;;;10.40;99.90;;;;;;5006263;28;20038;-75
2023/07/14 02:28:56;;;;;;;18.55;16.90;;;10.40;99.90;;;;;;5011466;28;20072;-75
2023/07/14 02:31:45;;;;;;;21.42;17.15;;;10.20;99.90;;;;;;4996943;28;20026;-75
2023/07/14 02:34:15;;;;;;;16.52;14.95;;;10.20;99.90;;;;;;5008305;28;20045;-75
2023/07/14 02:36:55;;;;;;;17.35;15.77;;;10.10;99.90;;;;;;5014822;28;20049;-75
2023/07/14 02:39:22;;;;;;;17.50;15.82;;;10.10;99.90;;;;;;5010087;28;20432;-75
2023/07/14 02:41:53;;;;;;;18.23;16.33;;;10.00;99.90;;;;;;5010095;28;20049;-75
2023/07/14 02:44:25;;;;;;;19.65;17.70;;;9.90;99.90;;;;;;5014429;28;20951;-76
2023/07/14 02:47:00;;;;;;;18.52;16.92;;;10.10;99.90;;;;;;5016612;28;20096;-75
2023/07/14 02:49:27;;;;;;;19.55;16.92;;;10.00;99.90;;;;;;5027896;28;20065;-75
2023/07/14 02:51:55;;;;;;;16.63;14.13;;;10.00;99.90;;;;;;5013711;28;20536;-74
2023/07/14 02:54:25;;;;;;;16.27;14.68;;;10.00;99.90;;;;;;5014298;28;20652;-74
2023/07/14 02:56:52;;;;;;;16.08;14.68;;;9.90;99.90;;;;;;5008238;28;20089;-75
2023/07/14 02:59:20;;;;;;;17.92;16.30;;;9.80;99.90;;;;;;4984881;28;20542;-75
2023/07/14 03:01:47;;;;;;;18.23;16.55;;;9.80;99.90;;;;;;5001760;28;20124;-75
2023/07/14 03:04:14;;;;;;;18.40;16.55;;;9.80;99.90;;;;;;4999759;28;20605;-75
2023/07/14 03:06:41;;;;;;;17.85;16.15;;;10.00;99.90;;;;;;5002299;28;20490;-75
2023/07/14 03:09:10;;;;;;;18.55;16.88;;;10.00;99.90;;;;;;5006858;28;20092;-74
2023/07/14 03:11:37;;;;;;;21.92;16.80;;;10.00;99.90;;;;;;5003183;28;20037;-75
2023/07/14 03:14:05;;;;;;;18.63;16.90;;;9.90;99.90;;;;;;5002922;28;20056;-75
2023/07/14 03:16:32;;;;;;;18.40;16.52;;;10.00;99.90;;;;;;5015066;28;20049;-75
2023/07/14 03:18:59;;;;;;;19.40;15.88;;;9.90;99.90;;;;;;5003307;28;20042;-74
2023/07/14 03:21:26;;;;;;;18.73;16.27;;;9.90;99.90;;;;;;5000269;28;21380;-74
2023/07/14 03:23:53;;;;;;;23.30;17.25;;;9.90;99.90;;;;;;4998476;28;20252;-75
2023/07/14 03:26:20;;;;;;;21.80;17.27;;;9.90;99.90;;;;;;4998432;28;20141;-75
2023/07/14 03:28:47;;;;;;;21.55;17.20;;;10.10;99.90;;;;;;5002986;28;20681;-75
2023/07/14 03:31:14;;;;;;;18.20;15.23;;;10.00;99.90;;;;;;4996161;28;20157;-75
2023/07/14 03:33:41;;;;;;;20.75;14.68;;;9.90;99.90;;;;;;5002602;28;20045;-75
2023/07/14 03:36:20;;;;;;;17.95;13.90;;;10.00;99.90;;;;;;4999236;28;20487;-76
2023/07/14 03:39:06;;;;;;;17.17;14.70;;;10.00;99.90;;;;;;5004066;28;20038;-75
2023/07/14 03:41:33;;;;;;;22.83;14.85;;;10.10;99.90;;;;;;5014315;28;20054;-75
2023/07/14 03:44:00;;;;;;;20.08;14.50;;;10.10;99.90;;;;;;5025850;28;20039;-74
2023/07/14 03:46:27;;;;;;;22.33;15.32;;;10.00;99.90;;;;;;5014187;28;20042;-76
2023/07/14 03:48:54;;;;;;;21.30;15.75;;;10.00;99.90;;;;;;4988879;28;20058;-75
2023/07/14 03:51:20;;;;;;;19.65;17.35;;;10.20;99.90;;;;;;5009148;28;20049;-76
2023/07/14 03:53:47;;;;;;;22.42;14.90;;;10.30;99.90;;;;;;5009396;28;20041;-76
2023/07/14 03:56:14;;;;;;;26.40;16.20;;;10.20;99.90;;;;;;5002327;28;20034;-74
2023/07/14 03:58:42;;;;;;;17.75;14.75;;;10.20;99.90;;;;;;5002635;28;20056;-74
2023/07/14 04:01:09;;;;;;;15.30;13.80;;;10.20;99.90;;;;;;5002836;28;20100;-75
2023/07/14 04:03:36;;;;;;;16.30;13.30;;;10.10;99.90;;;;;;5000578;28;20050;-76
2023/07/14 04:06:02;;;;;;;16.75;13.10;;;10.00;99.90;;;;;;4999888;28;20128;-75
2023/07/14 04:08:36;;;;;;;14.90;13.40;;;10.00;99.90;;;;;;5001845;28;20061;-75
2023/07/14 04:11:03;;;;;;;16.30;14.02;;;10.00;99.90;;;;;;5001041;28;20046;-75
2023/07/14 04:13:30;;;;;;;15.70;14.05;;;9.90;99.90;;;;;;5001429;28;20048;-75
2023/07/14 04:15:57;;;;;;;15.18;13.85;;;9.90;99.90;;;;;;4997429;28;20038;-74
2023/07/14 04:18:24;;;;;;;19.67;14.95;;;9.90;99.90;;;;;;5003598;28;20037;-75
2023/07/14 04:20:51;;;;;;;16.55;14.90;;;10.10;99.90;;;;;;5002407;28;20578;-75
2023/07/14 04:23:18;;;;;;;17.73;14.98;;;10.30;99.90;;;;;;4998471;28;20102;-75
2023/07/14 04:25:45;;;;;;;16.85;15.23;;;10.40;99.90;;;;;;5000325;28;20049;-75
2023/07/14 04:28:12;;;;;;;15.48;13.95;;;10.50;99.90;;;;;;5018038;28;20052;-76
2023/07/14 04:30:38;;;;;;;16.65;14.48;;;10.70;99.90;;;;;;4999135;28;20045;-75
2023/07/14 04:33:05;;;;;;;16.00;14.38;;;10.90;99.90;;;;;;5001948;28;20096;-75
2023/07/14 04:35:32;;;;;;;14.48;13.05;;;10.90;99.90;;;;;;5006078;28;20757;-75
2023/07/14 04:37:59;;;;;;;17.25;12.95;;;10.80;99.90;;;;;;5000041;28;20057;-75
2023/07/14 04:40:25;;;;;;;15.02;12.77;;;11.00;99.90;;;;;;5000429;28;20050;-74
2023/07/14 04:43:03;;;;;;;14.27;12.98;;;11.10;99.90;;;;;;4999329;28;20054;-75
2023/07/14 04:45:29;;;;;;;14.77;13.15;;;11.40;99.90;;;;;;4997841;28;20046;-75
2023/07/14 04:47:56;;;;;;;15.43;13.90;;;11.60;99.90;;;;;;4998073;28;20129;-76
2023/07/14 04:50:24;;;;;;;14.98;13.52;;;11.70;99.90;;;;;;5001380;28;20041;-74
2023/07/14 04:52:51;;;;;;;15.13;13.63;;;11.80;99.90;;;;;;4998002;28;20050;-75
2023/07/14 04:55:18;;;;;;;15.43;13.75;;;11.90;99.90;;;;;;4998316;28;20033;-74
2023/07/14 04:57:46;;;;;;;18.88;14.57;;;11.90;99.90;;;;;;5004985;28;20676;-75
2023/07/14 05:00:13;;;;;;;16.75;14.57;;;12.00;99.90;;;;;;4996566;28;20042;-74
2023/07/14 05:02:40;;;;;;;14.95;13.60;;;12.10;99.90;;;;;;5002636;28;20054;-74
2023/07/14 05:05:19;;;;;;;16.15;14.63;;;12.10;99.90;;;;;;4997735;28;20065;-74
2023/07/14 05:07:48;;;;;;;14.93;13.68;;;12.20;99.90;;;;;;5000323;28;20081;-75
2023/07/14 05:10:18;;;;;;;15.50;13.95;;;12.40;99.90;;;;;;4997207;28;20040;-74
2023/07/14 05:12:45;;;;;;;14.52;13.38;;;12.70;99.90;;;;;;5002742;28;20049;-74
2023/07/14 05:15:12;;;;;;;15.50;14.18;;;13.10;99.90;;;;;;4998474;28;20054;-75
2023/07/14 05:17:41;;;;;;;17.52;15.40;;;13.40;99.90;;;;;;5002801;28;20196;-74
2023/07/14 05:20:14;;;;;;;16.38;15.00;;;13.60;99.90;;;;;;4998566;28;20511;-74
2023/07/14 05:22:43;;;;;;;17.63;16.10;;;13.80;99.90;;;;;;5003163;28;20160;-74
2023/07/14 05:25:11;;;;;;;16.95;15.75;;;14.00;99.90;;;;;;4999603;28;20049;-74
2023/07/14 05:27:39;;;;;;;17.15;16.05;;;14.30;99.90;;;;;;4979190;28;20054;-74
2023/07/14 05:30:09;;;;;;;18.95;17.50;;;14.60;99.90;;;;;;4977512;28;20089;-74
2023/07/14 05:32:35;;;;;;;19.33;17.88;;;14.70;99.90;;;;;;5001108;28;20061;-75
2023/07/14 05:35:03;;;;;;;20.80;19.27;;;14.90;99.90;;;;;;4992505;28;20050;-75
2023/07/14 05:37:30;;;;;;;20.92;19.33;;;15.10;99.90;;;;;;4982600;28;20046;-75
2023/07/14 05:39:57;;;;;;;20.58;19.10;;;15.20;99.90;;;;;;4983309;28;20085;-74
2023/07/14 05:42:23;;;;;;;22.25;20.33;;;15.20;99.90;;;;;;4984536;28;20038;-76
2023/07/14 05:44:50;;;;;;;20.33;18.83;;;15.20;99.90;;;;;;4992234;28;20046;-75
2023/07/14 05:47:17;;;;;;;18.85;17.33;;;15.30;99.90;;;;;;4990597;28;20038;-75
2023/07/14 05:49:44;;;;;;;17.90;16.73;;;15.40;99.90;;;;;;5010426;28;20069;-74
2023/07/14 05:52:12;;;;;;;18.60;17.08;;;15.60;99.90;;;;;;4990048;28;20038;-75
2023/07/14 05:54:39;;;;;;;19.35;17.67;;;15.90;99.90;;;;;;4994867;28;20082;-74
2023/07/14 05:57:06;;;;;;;19.75;18.45;;;16.20;99.90;;;;;;4987714;28;20070;-74
2023/07/14 05:59:33;;;;;;;22.40;20.70;;;16.60;99.90;;;;;;4983343;28;20050;-74
2023/07/14 06:02:00;;;;;;;21.88;20.48;;;17.00;99.90;;;;;;4981673;28;20073;-74
2023/07/14 06:04:27;;;;;;;23.02;21.52;;;17.10;99.90;;;;;;4986538;28;20046;-75
2023/07/14 06:06:53;;;;;;;24.90;22.95;;;17.40;99.90;;;;;;4987021;28;20088;-75
2023/07/14 06:09:20;;;;;;;27.48;25.58;;;17.60;99.90;;;;;;4986206;28;20076;-74
2023/07/14 06:11:47;;;;;;;26.65;25.00;;;17.50;99.90;;;;;;4983332;28;20042;-75
2023/07/14 06:14:14;;;;;;;27.13;25.45;;;17.50;99.90;;;;;;4982522;28;20050;-75
2023/07/14 06:16:41;;;;;;;27.25;25.65;;;17.40;99.90;;;;;;4986821;28;20046;-75
2023/07/14 06:19:08;;;;;;;25.63;23.83;;;17.30;99.90;;;;;;4980491;28;20074;-75
2023/07/14 06:21:34;;;;;;;26.40;24.67;;;17.50;99.90;;;;;;4986517;28;20030;-75
2023/07/14 06:24:01;;;;;;;27.23;25.40;;;17.70;99.90;;;;;;4980326;28;20074;-75
2023/07/14 06:26:28;;;;;;;26.58;24.98;;;17.70;99.90;;;;;;4988895;28;20682;-74
2023/07/14 06:28:55;;;;;;;26.48;24.83;;;17.80;99.90;;;;;;4987497;28;20046;-75
2023/07/14 06:31:23;;;;;;;26.83;24.80;;;17.90;99.90;;;;;;4986907;28;20045;-75
2023/07/14 06:33:50;;;;;;;26.08;24.23;;;18.00;99.90;;;;;;4975995;28;20420;-74
2023/07/14 06:36:17;;;;;;;26.25;24.67;;;18.10;99.90;;;;;;4989566;28;20528;-75
2023/07/14 06:38:43;;;;;;;27.15;25.25;;;18.20;99.90;;;;;;5014888;28;20112;-74
2023/07/14 06:41:10;;;;;;;27.08;25.38;;;18.20;99.90;;;;;;4981135;28;20101;-75
2023/07/14 06:43:37;;;;;;;27.27;25.65;;;18.20;99.90;;;;;;4990048;28;20618;-73
2023/07/14 06:46:04;;;;;;;27.00;25.05;;;18.20;99.90;;;;;;4982811;28;20699;-74
2023/07/14 06:48:30;;;;;;;27.33;25.58;;;18.50;99.90;;;;;;4981941;28;20049;-74
2023/07/14 06:50:57;;;;;;;26.85;24.98;;;18.70;99.90;;;;;;4990822;28;20042;-76
2023/07/14 06:53:25;;;;;;;27.98;25.98;;;18.80;99.90;;;;;;5012783;28;20102;-75
2023/07/14 06:55:52;;;;;;;26.13;24.42;;;18.80;99.90;;;;;;4984895;28;20042;-74
2023/07/14 06:58:21;;;;;;;27.90;26.00;;;18.70;99.90;;;;;;4976711;28;20085;-74
2023/07/14 07:00:47;;;;;;;27.08;25.27;;;18.80;99.90;;;;;;4978922;28;20043;-75
2023/07/14 07:03:14;;;;;;;27.77;25.60;;;19.00;99.90;;;;;;4976929;28;20197;-75
2023/07/14 07:05:43;;;;;;;27.25;25.55;;;19.10;99.90;;;;;;4980161;28;21630;-75
2023/07/14 07:08:13;;;;;;;27.38;25.55;;;19.20;99.90;;;;;;5002402;28;20081;-73
2023/07/14 07:10:41;;;;;;;28.05;26.15;;;19.10;99.90;;;;;;4976653;28;20054;-73
2023/07/14 07:13:09;;;;;;;26.27;24.58;;;19.20;99.90;;;;;;4972811;28;20049;-74
2023/07/14 07:15:36;;;;;;;27.85;25.95;;;19.30;99.90;;;;;;4963669;28;20587;-74
2023/07/14 07:18:03;;;;;;;27.45;25.63;;;19.30;99.90;;;;;;4981714;28;20133;-74
2023/07/14 07:20:30;;;;;;;27.70;25.85;;;19.30;99.90;;;;;;4977583;28;20253;-74
2023/07/14 07:22:57;;;;;;;26.35;24.73;;;19.40;99.90;;;;;;4978853;28;20073;-73
2023/07/14 07:25:24;;;;;;;27.05;25.25;;;19.50;99.90;;;;;;4976411;28;20047;-73
2023/07/14 07:27:51;;;;;;;27.90;26.20;;;19.70;99.90;;;;;;4978424;28;20037;-74
2023/07/14 07:30:18;;;;;;;27.35;25.35;;;19.90;99.90;;;;;;5005615;28;20093;-74
2023/07/14 07:32:47;;;;;;;27.05;25.35;;;19.90;99.90;;;;;;4977638;28;20125;-75
2023/07/14 07:35:14;;;;;;;25.42;23.92;;;19.90;99.90;;;;;;4976904;28;20050;-74
2023/07/14 07:37:41;;;;;;;26.20;24.30;;;20.00;99.90;;;;;;4979683;28;20488;-73
2023/07/14 07:40:09;;;;;;;27.08;25.17;;;20.10;99.90;;;;;;4975812;28;20054;-73
2023/07/14 07:42:36;;;;;;;26.45;24.63;;;20.30;99.90;;;;;;4996203;28;20845;-74
2023/07/14 07:45:03;;;;;;;26.48;24.85;;;20.30;99.90;;;;;;4998942;28;20054;-74
2023/07/14 07:47:30;;;;;;;27.63;25.92;;;20.20;99.90;;;;;;5009478;28;20035;-74
2023/07/14 07:49:57;;;;;;;26.92;25.33;;;20.30;99.90;;;;;;4979542;28;20125;-75
2023/07/14 07:52:24;;;;;;;28.17;26.25;;;20.40;99.90;;;;;;4977099;28;20057;-76
2023/07/14 07:54:51;;;;;;;28.08;26.17;;;20.50;99.90;;;;;;4979186;28;23073;-76
2023/07/14 07:57:18;;;;;;;26.60;25.00;;;20.80;99.90;;;;;;4975686;28;20108;-75
2023/07/14 07:59:45;;;;;;;27.15;25.17;;;21.30;99.90;;;;;;4979589;28;20459;-76
2023/07/14 08:02:12;;;;;;;27.52;25.52;;;21.70;99.90;;;;;;4976753;28;20093;-74
2023/07/14 08:04:39;;;;;;;27.75;26.05;;;22.00;99.90;;;;;;4984791;28;20038;-73
2023/07/14 08:07:13;;;;;;;28.30;26.50;;;21.90;99.90;;;;;;4984061;28;20053;-74
2023/07/14 08:09:39;;;;;;;27.85;26.25;;;21.70;99.90;;;;;;4998649;28;20045;-72
2023/07/14 08:12:07;;;;;;;28.17;26.27;;;21.90;99.90;;;;;;5002141;28;20051;-74
2023/07/14 08:14:52;;;;;;;28.00;26.20;;;22.00;99.90;;;;;;4982882;28;20046;-73
2023/07/14 08:17:28;;;;;;;28.27;26.20;;;22.20;99.90;;;;;;4979377;28;20753;-74
2023/07/14 08:19:55;;;;;;;27.40;25.60;;;22.50;99.90;;;;;;4980371;28;20038;-74
2023/07/14 08:22:23;;;;;;;28.65;26.95;;;22.50;99.90;;;;;;4974374;28;20046;-74
2023/07/14 08:24:51;;;;;;;28.98;26.98;;;22.80;99.90;;;;;;4978363;28;20046;-74
2023/07/14 08:27:18;;;;;;;29.67;27.38;;;23.10;99.90;;;;;;4975689;28;20499;-74
2023/07/14 08:29:45;;;;;;;28.15;26.42;;;23.10;99.90;;;;;;4976994;28;20073;-74
2023/07/14 08:32:11;;;;;;;29.98;27.98;;;23.30;99.90;;;;;;4974872;28;20054;-74
2023/07/14 08:34:39;;;;;;;30.27;28.27;;;23.10;99.90;;;;;;4980296;28;20109;-74
2023/07/14 08:37:07;;;;;;;29.70;27.88;;;22.90;99.90;;;;;;4981396;28;20094;-74
2023/07/14 08:39:33;;;;;;;28.15;26.23;;;23.00;99.90;;;;;;5009746;28;20046;-74
2023/07/14 08:42:39;;;;;;;28.17;26.27;;;23.00;99.90;;;;;;4977776;28;20050;-74
2023/07/14 08:45:26;;;;;;;30.05;28.00;;;23.10;99.90;;;;;;4976346;28;20077;-75
2023/07/14 08:48:05;;;;;;;29.58;27.77;;;23.10;99.90;;;;;;4975554;28;20520;-74
2023/07/14 08:50:36;;;;;;;28.85;26.95;;;23.10;99.90;;;;;;4979125;28;20042;-74
2023/07/14 08:53:08;;;;;;;29.30;27.30;;;23.10;99.90;;;;;;4977700;28;20895;-73
2023/07/14 08:55:38;;;;;;;28.70;26.80;;;22.90;99.90;;;;;;4979210;28;20053;-74
2023/07/14 08:58:18;;;;;;;30.95;28.95;;;22.80;99.90;;;;;;4984830;28;20516;-74
2023/07/14 09:01:03;;;;;;;29.20;27.23;;;22.70;99.90;;;;;;4986746;28;20042;-74
2023/07/14 09:03:53;;;;;;;30.48;28.10;;;22.80;99.90;;;;;;4993676;28;20052;-74
2023/07/14 09:06:23;;;;;;;29.58;27.65;;;22.80;99.90;;;;;;4984624;28;20042;-73
2023/07/14 09:08:52;;;;;;;31.30;29.25;;;23.00;99.90;;;;;;4979598;28;20173;-74
2023/07/14 09:11:19;;;;;;;28.45;26.48;;;23.00;99.90;;;;;;4985008;28;20048;-73
2023/07/14 09:13:54;;;;;;;32.17;30.17;;;23.50;99.90;;;;;;4995450;28;20104;-74
2023/07/14 09:16:24;;;;;;;28.13;26.13;;;23.80;99.90;;;;;;4986207;28;20084;-74
2023/07/14 09:19:15;;;;;;;29.08;27.15;;;23.70;99.90;;;;;;4996111;28;20048;-74
2023/07/14 09:21:51;;;;;;;32.17;30.02;;;23.60;99.90;;;;;;4981186;28;20042;-74
2023/07/14 09:24:36;;;;;;;28.80;26.83;;;23.80;99.90;;;;;;4980477;28;20067;-73
2023/07/14 09:27:08;;;;;;;31.27;28.92;;;23.90;99.90;;;;;;5009994;28;20046;-74
2023/07/14 09:29:41;;;;;;;30.35;28.45;;;24.00;99.90;;;;;;4995308;28;20125;-74
2023/07/14 09:32:30;;;;;;;31.90;29.60;;;23.90;99.90;;;;;;4980082;28;20042;-74
2023/07/14 09:35:00;;;;;;;29.77;27.88;;;23.60;99.90;;;;;;5011619;28;20042;-74
2023/07/14 09:37:48;;;;;;;30.65;28.42;;;23.50;99.90;;;;;;4978369;28;20054;-75
2023/07/14 09:40:21;;;;;;;28.48;26.63;;;23.60;99.90;;;;;;4978064;28;20054;-74
2023/07/14 09:42:54;;;;;;;29.83;27.80;;;23.60;99.90;;;;;;4979001;28;20054;-75
2023/07/14 09:45:21;;;;;;;30.30;28.00;;;23.40;99.90;;;;;;4980158;28;20058;-76
2023/07/14 09:48:00;;;;;;;27.63;25.73;;;23.40;99.90;;;;;;4985279;28;20065;-75
2023/07/14 09:50:31;;;;;;;29.80;27.90;;;23.30;99.90;;;;;;4979038;28;20567;-74
2023/07/14 09:53:03;;;;;;;31.13;28.83;;;23.10;99.90;;;;;;4981298;28;20042;-74
2023/07/14 09:55:46;;;;;;;29.25;27.15;;;23.50;99.90;;;;;;4977687;28;20099;-74
2023/07/14 09:58:16;;;;;;;28.95;27.05;;;23.70;99.90;;;;;;4977662;28;20042;-73
2023/07/14 10:00:46;;;;;;;28.20;26.40;;;23.70;99.90;;;;;;4978077;28;20038;-74
2023/07/14 10:03:17;;;;;;;28.25;26.42;;;23.50;99.90;;;;;;4974852;28;20652;-75
2023/07/14 10:06:03;;;;;;;28.30;26.40;;;23.60;99.90;;;;;;4977578;28;20050;-73
2023/07/14 10:08:33;;;;;;;28.83;27.00;;;23.60;99.90;;;;;;4980555;28;20042;-73
2023/07/14 10:11:13;;;;;;;31.45;29.17;;;23.50;99.90;;;;;;5012737;28;20050;-74
2023/07/14 10:13:46;;;;;;;28.10;26.30;;;23.50;99.90;;;;;;4980651;28;20097;-74
2023/07/14 10:16:16;;;;;;;31.27;28.98;;;23.50;99.90;;;;;;4978328;28;20046;-74
2023/07/14 10:18:55;;;;;;;31.20;28.67;;;23.70;99.90;;;;;;4982233;28;20107;-74
2023/07/14 10:21:34;;;;;;;32.75;30.63;;;23.80;99.90;;;;;;4977148;28;20653;-74
2023/07/14 10:24:14;;;;;;;29.70;27.67;;;24.00;99.90;;;;;;4980722;28;20078;-73
2023/07/14 10:26:48;;;;;;;29.55;27.55;;;24.40;99.90;;;;;;4978658;28;20050;-74
2023/07/14 10:29:17;;;;;;;34.95;32.65;;;24.60;99.90;;;;;;4976899;28;20045;-74
2023/07/14 10:31:52;;;;;;;30.15;28.02;;;24.30;99.90;;;;;;4979241;28;20496;-73
2023/07/14 10:34:40;;;;;;;30.35;28.20;;;24.70;99.90;;;;;;4976605;28;20134;-74
2023/07/14 10:37:24;;;;;;;29.25;27.25;;;24.60;99.90;;;;;;4979013;28;20054;-74
2023/07/14 10:40:14;;;;;;;29.08;27.27;;;24.00;99.90;;;;;;4975556;28;20092;-75
2023/07/14 10:42:53;;;;;;;30.80;28.70;;;23.80;99.90;;;;;;5001355;28;20516;-75
2023/07/14 10:45:20;;;;;;;33.42;31.23;;;23.80;99.90;;;;;;4992839;28;20057;-74
2023/07/14 10:48:03;;;;;;;36.03;33.83;;;23.80;99.90;;;;;;4981661;28;20068;-74
2023/07/14 10:50:37;;;;;;;34.15;31.88;;;23.90;99.90;;;;;;4975101;28;20561;-74
2023/07/14 10:53:19;;;;;;;30.77;28.77;;;24.10;99.90;;;;;;4978010;28;20198;-73
2023/07/14 10:55:48;;;;;;;37.35;34.17;;;24.30;99.90;;;;;;4978992;28;20053;-75
2023/07/14 10:58:39;;;;;;;37.03;34.40;;;24.30;99.90;;;;;;4978851;28;20120;-75
2023/07/14 11:01:16;;;;;;;31.98;29.90;;;24.40;99.90;;;;;;4979613;28;20116;-74
2023/07/14 11:03:51;;;;;;;32.65;30.38;;;24.40;99.90;;;;;;4977146;28;20049;-74
2023/07/14 11:06:24;;;;;;;32.20;30.05;;;24.00;99.90;;;;;;4976012;28;20129;-74
2023/07/14 11:08:53;;;;;;;33.92;31.50;;;23.80;99.90;;;;;;4979004;28;20602;-75
2023/07/14 11:11:44;;;;;;;33.05;30.55;;;23.70;99.90;;;;;;4977554;28;20058;-74
2023/07/14 11:14:35;;;;;;;31.38;29.35;;;23.50;99.90;;;;;;4979240;28;20065;-75
2023/07/14 11:17:38;;;;;;;33.03;30.75;;;23.40;99.90;;;;;;4977342;28;20058;-74
2023/07/14 11:20:26;;;;;;;33.72;31.30;;;23.30;99.90;;;;;;4976506;28;20046;-74
2023/07/14 11:23:13;;;;;;;34.40;32.22;;;23.30;99.90;;;;;;4976805;28;20096;-73
2023/07/14 11:25:55;;;;;;;37.85;35.35;;;23.40;99.90;;;;;;4978943;28;20558;-72
2023/07/14 11:28:53;;;;;;;37.83;35.30;;;23.60;99.90;;;;;;4975407;28;20047;-72
2023/07/14 11:31:27;;;;;;;37.97;35.30;;;24.00;99.90;;;;;;4975458;28;20045;-73
2023/07/14 11:33:54;;;;;;;;;;;24.30;99.90;;;;;;4974165;28;20039;-73
2023/07/14 11:36:30;;;;;;;35.58;33.42;;;24.80;99.90;;;;;;4974919;28;19976;-74
2023/07/14 11:39:07;;;;;;;34.50;32.30;;;25.00;99.90;;;;;;4973261;28;20047;-73
2023/07/14 11:41:35;;;;;;;34.95;32.85;;;25.10;99.90;;;;;;4973079;28;20521;-73
2023/07/14 11:44:05;;;;;;;35.78;33.58;;;24.50;99.90;;;;;;4978964;28;20050;-74
2023/07/14 11:46:33;;;;;;;34.85;32.72;;;24.10;99.90;;;;;;4974860;28;20050;-74
2023/07/14 11:49:04;;;;;;;34.17;31.70;;;24.10;99.90;;;;;;4976691;28;20134;-74
2023/07/14 11:51:56;;;;;;;34.03;31.63;;;24.10;99.90;;;;;;4975803;28;20124;-74
2023/07/14 11:54:42;;;;;;;34.28;31.67;;;24.00;99.90;;;;;;4975370;28;20058;-74
2023/07/14 11:57:17;;;;;;;33.85;31.55;;;24.30;99.90;;;;;;4977198;28;20153;-74
2023/07/14 12:00:19;;;;;;;34.33;31.98;;;24.30;99.90;;;;;;4974352;28;20038;-74
2023/07/14 12:02:49;;;;;;;33.75;31.65;;;24.10;99.90;;;;;;4980021;28;20610;-74
2023/07/14 12:05:32;;;;;;;35.20;32.90;;;24.10;99.90;;;;;;4973496;28;20145;-74
2023/07/14 12:08:03;;;;;;;36.08;33.55;;;24.10;99.90;;;;;;4978791;28;20523;-74
2023/07/14 12:10:39;;;;;;;35.47;33.15;;;24.30;99.90;;;;;;5005388;28;20050;-73
2023/07/14 12:13:37;;;;;;;35.00;32.83;;;24.40;99.90;;;;;;4981285;28;20070;-73
2023/07/14 12:16:12;;;;;;;36.42;34.13;;;24.70;99.90;;;;;;4975491;28;20047;-73
2023/07/14 12:18:59;;;;;;;35.17;32.88;;;25.10;99.90;;;;;;4977998;28;20137;-73
2023/07/14 12:21:32;;;;;;;35.10;32.58;;;25.60;99.90;;;;;;4982436;28;20042;-74
2023/07/14 12:24:30;;;;;;;35.47;33.17;;;25.60;99.90;;;;;;5000941;28;20052;-74
2023/07/14 12:27:27;;;;;;;35.33;32.97;;;25.40;99.90;;;;;;4992675;28;20384;-74
2023/07/14 12:30:20;;;;;;;35.72;33.33;;;25.30;99.90;;;;;;4978596;28;20042;-73
2023/07/14 12:32:52;;;;;;;35.95;33.65;;;24.90;99.90;;;;;;4979274;28;20049;-73
2023/07/14 12:35:19;;;;;;;37.85;35.33;;;25.00;99.90;;;;;;4976116;28;20043;-74
2023/07/14 12:37:46;;;;;;;39.53;37.03;;;25.40;99.90;;;;;;4976367;28;20034;-74
2023/07/14 12:40:22;;;;;;;39.47;36.38;;;25.50;99.90;;;;;;4976117;28;20100;-72
2023/07/14 12:42:51;;;;;;;39.22;36.83;;;25.50;99.90;;;;;;4975317;28;20088;-73
2023/07/14 12:45:20;;;;;;;39.40;37.00;;;25.40;99.90;;;;;;4970561;28;20046;-72
2023/07/14 12:47:49;;;;;;;39.05;36.40;;;25.60;99.90;;;;;;4982736;28;20104;-72
2023/07/14 12:50:19;;;;;;;36.28;34.22;;;25.80;99.90;;;;;;4977854;28;20475;-73
2023/07/14 12:52:48;;;;;;;36.42;34.08;;;25.80;99.90;;;;;;4982450;28;20044;-73